»·PEaware :: USC81 KRDD-KONO

USC81 :: KRDD-KONO

FLIGHT INFORMATION

Flight Status: Arrived
Operator: Unknown
More flights by this operator :: More flights under this callsign
Pilot: Andy P. (22680)
Aircraft: GATES LEARJET LEARJET 35/36
(LJ35)
More flights by this aircraft type
Origin: KRDD Redding Mun
United States
Destination: KONO Ontario Mun
United States
More flights between these airports :: More routes between these airports
Route: REO
File this flight plan on PilotEdge
Remarks:
Altitude:
(Current/Filed)
33,000ft
Speed:
(Current/Filed)
465kts
Departed: 11-Oct-19 01:40 PM
Arrived: 11-Oct-19 02:33 PM
Distance/Time
Traveled:
315nm/0:53
Distance/Time
To Go:
Arrived

Flight Plot

Page will automatically refresh every two minutes.

Flight plan parsing failed; only flown route is shown


Map Options




Map Legend


Flown Route
Filed Route
Departure Airport
Arrival Airport
Navaid (VOR, NDB)
Fix

Horizontal Profiles

Position Reports

Time Latitude Longitude Heading Altitude Ground
Speed
11-Oct-19 13:19 40.503038 -122.298729 180 505ft 0kts
11-Oct-19 13:20 40.503038 -122.298729 180 505ft 0kts
11-Oct-19 13:21 40.503038 -122.298729 180 505ft 0kts
11-Oct-19 13:22 40.503038 -122.298729 180 505ft 0kts
11-Oct-19 13:23 40.503038 -122.298729 180 505ft 0kts
11-Oct-19 13:24 40.503038 -122.298729 180 505ft 0kts
11-Oct-19 13:25 40.503038 -122.298729 180 505ft 0kts
11-Oct-19 13:26 40.503038 -122.298729 180 505ft 0kts
11-Oct-19 13:27 40.503038 -122.298729 180 505ft 0kts
11-Oct-19 13:28 40.503038 -122.298729 180 505ft 0kts
11-Oct-19 13:29 40.503038 -122.298729 180 505ft 0kts
11-Oct-19 13:30 40.503038 -122.298729 180 505ft 0kts
11-Oct-19 13:31 40.503038 -122.298729 180 505ft 0kts
11-Oct-19 13:32 40.503038 -122.298729 180 505ft 0kts
11-Oct-19 13:33 40.503035 -122.298729 180 505ft 0kts
11-Oct-19 13:34 40.503033 -122.298729 180 505ft 0kts
11-Oct-19 13:35 40.503443 -122.298298 96 505ft 13kts
11-Oct-19 13:36 40.505160 -122.296339 359 505ft 19kts
11-Oct-19 13:37 40.512618 -122.296326 359 505ft 32kts
11-Oct-19 13:38 40.520221 -122.296101 57 505ft 6kts
11-Oct-19 13:39 40.513283 -122.294885 179 505ft 129kts
11-Oct-19 13:40 40.472590 -122.265833 88 3370ft 214kts
11-Oct-19 13:41 40.515055 -122.200371 40 6632ft 265kts
11-Oct-19 13:42 40.575984 -122.142076 36 9879ft 278kts
11-Oct-19 13:43 40.629231 -122.055822 58 13190ft 324kts
11-Oct-19 13:44 40.676964 -121.954933 53 17439ft 325kts
11-Oct-19 13:45 40.729545 -121.851607 55 20760ft 344kts
11-Oct-19 13:46 40.783838 -121.743527 54 23829ft 360kts
11-Oct-19 13:47 40.840036 -121.630904 54 26385ft 374kts
11-Oct-19 13:48 40.897690 -121.514247 54 28464ft 386kts
11-Oct-19 13:49 40.956503 -121.393700 56 30771ft 388kts
11-Oct-19 13:50 41.014645 -121.273929 54 32977ft 385kts
11-Oct-19 13:51 41.076288 -121.148841 54 33198ft 428kts
11-Oct-19 13:52 41.143351 -121.011009 55 33209ft 458kts
11-Oct-19 13:53 41.213608 -120.865752 55 33214ft 475kts
11-Oct-19 13:54 41.284488 -120.718458 55 33214ft 470kts
11-Oct-19 13:55 41.355099 -120.571073 55 33215ft 473kts
11-Oct-19 13:56 41.425587 -120.423207 55 33214ft 471kts
11-Oct-19 13:57 41.495607 -120.275614 55 33214ft 469kts
11-Oct-19 13:58 41.564984 -120.128671 55 33214ft 469kts
11-Oct-19 13:59 41.634574 -119.980557 55 33214ft 469kts
11-Oct-19 14:00 41.703662 -119.832776 55 33219ft 469kts
11-Oct-19 14:01 41.772607 -119.684586 55 33223ft 472kts
11-Oct-19 14:02 41.842365 -119.533901 55 33235ft 477kts
11-Oct-19 14:03 41.912376 -119.381899 56 33232ft 479kts
11-Oct-19 14:04 41.982320 -119.229263 56 33232ft 479kts
11-Oct-19 14:05 42.051778 -119.076905 55 33232ft 476kts
11-Oct-19 14:06 42.120691 -118.924983 55 33237ft 475kts
11-Oct-19 14:07 42.189407 -118.772737 55 33273ft 475kts
11-Oct-19 14:08 42.257869 -118.620241 55 32929ft 470kts
11-Oct-19 14:09 42.325004 -118.469968 55 31158ft 465kts
11-Oct-19 14:10 42.391425 -118.320529 56 29371ft 463kts
11-Oct-19 14:11 42.457807 -118.170411 56 27599ft 463kts
11-Oct-19 14:12 42.523856 -118.020309 56 25833ft 465kts
11-Oct-19 14:13 42.596999 -117.876833 39 24062ft 461kts
11-Oct-19 14:14 42.710110 -117.799427 21 22330ft 456kts
11-Oct-19 14:15 42.824353 -117.731311 21 20631ft 440kts
11-Oct-19 14:16 42.935488 -117.665625 21 18980ft 434kts
11-Oct-19 14:17 43.045670 -117.600390 21 17342ft 422kts
11-Oct-19 14:18 43.151769 -117.537379 21 15766ft 412kts
11-Oct-19 14:19 43.256862 -117.474728 21 14200ft 410kts
11-Oct-19 14:20 43.358041 -117.414135 21 12691ft 365kts
11-Oct-19 14:21 43.443669 -117.362727 22 11415ft 309kts
11-Oct-19 14:22 43.519132 -117.317342 23 10297ft 286kts
11-Oct-19 14:23 43.590132 -117.274269 23 9300ft 271kts
11-Oct-19 14:24 43.659523 -117.232512 24 9086ft 262kts
11-Oct-19 14:25 43.727195 -117.190488 25 8164ft 264kts
11-Oct-19 14:27 43.792555 -117.148208 25 6311ft 241kts
11-Oct-19 14:28 43.849474 -117.116162 23 5488ft 204kts
11-Oct-19 14:29 43.900405 -117.087073 24 4989ft 198kts
11-Oct-19 14:30 43.946194 -117.042936 50 4531ft 186kts
11-Oct-19 14:31 43.975498 -116.996395 21 3439ft 141kts
11-Oct-19 14:32 44.010886 -117.008473 339 2290ft 132kts
11-Oct-19 14:33 44.026008 -117.016025 76 2196ft 12kts
11-Oct-19 14:34 44.022608 -117.013327 99 2196ft 14kts
11-Oct-19 14:35 44.021718 -117.009851 268 2196ft 0kts
11-Oct-19 14:36 44.021718 -117.009853 268 2196ft 0kts

Navigation Log

Ident Type
Flight plan parsing failed, navigation log unavailable